createdAt,value
2023-03-22T00:00:19.616Z,9.64
2023-03-22T00:02:48.068Z,9.58
2023-03-22T00:05:16.724Z,9.54
2023-03-22T00:07:45.382Z,9.54
2023-03-22T00:10:14.087Z,9.39
2023-03-22T00:12:42.901Z,9.38
2023-03-22T00:15:13.598Z,9.29
2023-03-22T00:17:44.566Z,9.24
2023-03-22T00:20:13.532Z,9.13
2023-03-22T00:22:41.984Z,9.01
2023-03-22T00:25:11.182Z,9.12
2023-03-22T00:27:39.640Z,8.92
2023-03-22T00:30:10.148Z,8.91
2023-03-22T00:32:40.108Z,8.97
2023-03-22T00:35:09.960Z,9.01
2023-03-22T00:37:39.447Z,9.03
2023-03-22T00:40:13.248Z,8.98
2023-03-22T00:42:42.385Z,9.06
2023-03-22T00:45:12.818Z,9.02
2023-03-22T00:47:45.332Z,9.16
2023-03-22T00:50:13.911Z,9.19
2023-03-22T00:52:42.220Z,9.08
2023-03-22T00:55:11.647Z,9.01
2023-03-22T00:57:40.407Z,9.00
2023-03-22T01:00:13.322Z,8.95
2023-03-22T01:02:44.218Z,8.97
2023-03-22T01:05:21.721Z,8.98
2023-03-22T01:07:51.603Z,9.03
2023-03-22T01:10:20.305Z,8.94
2023-03-22T01:12:49.808Z,8.89
2023-03-22T01:15:18.409Z,8.98
2023-03-22T01:17:48.143Z,8.98
2023-03-22T01:20:16.717Z,8.94
2023-03-22T01:22:45.157Z,8.85
2023-03-22T01:25:13.708Z,8.87
2023-03-22T01:27:42.111Z,8.86
2023-03-22T01:30:11.546Z,8.84
2023-03-22T01:32:40.196Z,8.83
2023-03-22T01:35:11.579Z,8.85
2023-03-22T01:37:41.541Z,8.95
2023-03-22T01:40:12.794Z,8.87
2023-03-22T01:42:41.287Z,8.79
2023-03-22T01:45:38.176Z,8.81
2023-03-22T01:48:12.073Z,8.75
2023-03-22T01:50:46.177Z,8.76
2023-03-22T01:53:18.756Z,8.75
2023-03-22T01:55:48.031Z,8.76
2023-03-22T01:58:23.806Z,8.63
2023-03-22T02:00:57.510Z,8.55
2023-03-22T02:03:48.002Z,8.61
2023-03-22T02:06:19.079Z,8.57
2023-03-22T02:08:52.893Z,8.49
2023-03-22T02:11:29.986Z,8.38
2023-03-22T02:14:23.522Z,8.16
2023-03-22T02:17:22.304Z,8.15
2023-03-22T02:20:47.006Z,8.36
2023-03-22T02:23:38.316Z,8.13
2023-03-22T02:26:31.952Z,8.17
2023-03-22T02:29:09.074Z,8.34
2023-03-22T02:32:22.252Z,8.28
2023-03-22T02:35:17.555Z,8.41
2023-03-22T02:38:13.883Z,8.37
2023-03-22T02:40:50.889Z,8.34
2023-03-22T02:43:30.771Z,8.48
2023-03-22T02:46:07.736Z,8.49
2023-03-22T02:48:43.438Z,8.50
2023-03-22T02:51:18.568Z,8.41
2023-03-22T02:53:53.839Z,8.44
2023-03-22T02:56:27.353Z,8.44
2023-03-22T02:58:59.533Z,8.34
2023-03-22T03:01:30.138Z,8.32
2023-03-22T03:04:01.044Z,8.29
2023-03-22T03:06:35.639Z,8.34
2023-03-22T03:09:05.171Z,8.32
2023-03-22T03:11:35.126Z,8.23
2023-03-22T03:14:03.759Z,8.22
2023-03-22T03:16:36.574Z,8.27
2023-03-22T03:19:14.653Z,8.20
2023-03-22T03:21:52.577Z,8.20
2023-03-22T03:24:30.382Z,8.29
2023-03-22T03:27:03.441Z,8.17
2023-03-22T03:29:40.199Z,8.22
2023-03-22T03:32:16.348Z,8.24
2023-03-22T03:34:49.804Z,8.20
2023-03-22T03:37:21.855Z,8.10
2023-03-22T03:39:56.001Z,8.05
2023-03-22T03:42:28.969Z,8.04
2023-03-22T03:44:59.265Z,8.03
2023-03-22T03:47:29.906Z,7.88
2023-03-22T03:49:58.514Z,7.86
2023-03-22T03:52:26.894Z,7.88
2023-03-22T03:54:55.488Z,7.87
2023-03-22T03:57:31.301Z,7.96
2023-03-22T03:59:59.805Z,7.96
2023-03-22T04:02:52.740Z,8.02
2023-03-22T04:05:40.598Z,7.99
2023-03-22T04:08:10.036Z,8.01
2023-03-22T04:10:38.627Z,8.06
2023-03-22T04:13:08.777Z,7.99
2023-03-22T04:15:37.942Z,7.99
2023-03-22T04:18:11.210Z,8.01
2023-03-22T04:20:41.643Z,7.89
2023-03-22T04:23:10.971Z,7.84
2023-03-22T04:25:39.660Z,8.05
2023-03-22T04:28:13.612Z,8.09
2023-03-22T04:30:45.641Z,8.00
2023-03-22T04:33:39.207Z,7.96
2023-03-22T04:36:17.397Z,7.98
2023-03-22T04:39:00.635Z,7.88
2023-03-22T04:41:30.301Z,7.97
2023-03-22T04:44:02.970Z,8.00
2023-03-22T04:46:33.556Z,7.92
2023-03-22T04:49:05.820Z,7.97
2023-03-22T04:51:37.837Z,8.08
2023-03-22T04:54:31.337Z,8.11
2023-03-22T04:57:00.825Z,8.11
2023-03-22T04:59:32.995Z,8.05
2023-03-22T05:02:01.502Z,8.13
2023-03-22T05:04:35.202Z,8.12
2023-03-22T05:07:12.607Z,8.15
2023-03-22T05:09:49.382Z,8.13
2023-03-22T05:12:18.823Z,8.12
2023-03-22T05:14:53.908Z,8.09
2023-03-22T05:17:27.465Z,8.17
2023-03-22T05:19:58.356Z,8.20
2023-03-22T05:22:26.989Z,8.21
2023-03-22T05:24:56.477Z,8.32
2023-03-22T05:27:31.902Z,8.37
2023-03-22T05:30:09.876Z,8.32
2023-03-22T05:32:49.505Z,8.32
2023-03-22T05:35:18.244Z,8.35
2023-03-22T05:37:51.958Z,8.36
2023-03-22T05:40:21.015Z,8.38
2023-03-22T05:42:49.478Z,8.44
2023-03-22T05:45:26.881Z,8.45
2023-03-22T05:48:24.616Z,8.54
2023-03-22T05:50:53.179Z,8.61
2023-03-22T05:53:21.915Z,8.69
2023-03-22T05:56:09.805Z,8.69
2023-03-22T05:58:39.734Z,8.69
2023-03-22T06:01:12.507Z,8.79
2023-03-22T06:03:48.255Z,8.84
2023-03-22T06:06:31.674Z,8.96
2023-03-22T06:09:16.903Z,9.04
2023-03-22T06:11:48.153Z,9.12
2023-03-22T06:14:17.931Z,9.15
2023-03-22T06:17:08.104Z,9.13
2023-03-22T06:19:36.757Z,9.18
2023-03-22T06:22:07.127Z,9.16
2023-03-22T06:24:40.455Z,9.18
2023-03-22T06:27:11.150Z,9.16
2023-03-22T06:29:41.646Z,9.20
2023-03-22T06:32:11.925Z,9.20
2023-03-22T06:34:40.496Z,9.27
2023-03-22T06:37:10.108Z,9.33
2023-03-22T06:39:41.788Z,9.41
2023-03-22T06:42:11.085Z,9.43
2023-03-22T06:44:42.244Z,9.49
2023-03-22T06:47:17.618Z,9.65
2023-03-22T06:50:09.774Z,10.40
2023-03-22T06:52:54.909Z,10.77
2023-03-22T06:55:23.434Z,10.34
2023-03-22T06:57:51.945Z,10.11
2023-03-22T07:00:20.731Z,9.89
2023-03-22T07:02:52.695Z,9.96
2023-03-22T07:05:36.351Z,10.00
2023-03-22T07:08:04.971Z,9.87
2023-03-22T07:10:33.676Z,9.85
2023-03-22T07:13:03.031Z,9.82
2023-03-22T07:15:32.849Z,9.87
2023-03-22T07:18:26.131Z,9.95
2023-03-22T07:20:54.887Z,10.09
2023-03-22T07:23:23.398Z,10.16
2023-03-22T07:25:55.844Z,10.27
2023-03-22T07:28:28.826Z,10.48
2023-03-22T07:31:03.323Z,10.54
2023-03-22T07:33:42.241Z,10.77
2023-03-22T07:36:16.112Z,10.52
2023-03-22T07:38:44.696Z,10.62
2023-03-22T07:41:18.613Z,10.51
2023-03-22T07:44:18.244Z,10.32
2023-03-22T07:47:40.529Z,10.25
2023-03-22T07:50:31.012Z,10.26
2023-03-22T07:53:03.840Z,10.46
2023-03-22T07:55:34.310Z,10.47
2023-03-22T07:58:03.625Z,10.44
2023-03-22T08:00:32.214Z,10.52
2023-03-22T08:03:22.038Z,10.48
2023-03-22T08:06:16.291Z,10.70
2023-03-22T08:08:48.549Z,10.62
2023-03-22T08:11:16.937Z,10.50
2023-03-22T08:13:45.564Z,10.48
2023-03-22T08:16:14.080Z,10.47
2023-03-22T08:18:44.301Z,10.50
2023-03-22T08:21:21.259Z,10.77
2023-03-22T08:23:53.944Z,11.06
2023-03-22T08:26:40.836Z,11.92
2023-03-22T08:29:28.362Z,12.48
2023-03-22T08:32:02.079Z,12.26
2023-03-22T08:34:31.252Z,11.71
2023-03-22T08:37:08.658Z,11.88
2023-03-22T08:39:38.885Z,12.39
2023-03-22T08:42:25.906Z,13.18
2023-03-22T08:44:58.289Z,14.92
2023-03-22T08:47:29.579Z,14.38
2023-03-22T08:50:01.453Z,13.89
2023-03-22T08:52:45.354Z,12.92
2023-03-22T08:55:35.292Z,12.40
2023-03-22T08:58:13.177Z,12.01
2023-03-22T09:00:59.761Z,11.76
2023-03-22T09:04:00.498Z,11.31
2023-03-22T09:06:38.657Z,11.22
2023-03-22T09:09:08.646Z,11.12
2023-03-22T09:11:40.087Z,11.42
2023-03-22T09:14:08.706Z,11.55
2023-03-22T09:16:45.509Z,11.39
2023-03-22T09:19:14.027Z,11.41
2023-03-22T09:21:42.757Z,11.34
2023-03-22T09:24:27.088Z,11.42
2023-03-22T09:27:05.601Z,11.26
2023-03-22T09:29:34.227Z,11.31
2023-03-22T09:32:09.880Z,11.44
2023-03-22T09:34:47.574Z,11.81
2023-03-22T09:37:16.266Z,12.12
2023-03-22T09:39:52.013Z,13.06
2023-03-22T09:42:39.066Z,13.61
2023-03-22T09:45:15.886Z,15.06
2023-03-22T09:47:47.927Z,16.01
2023-03-22T09:50:21.743Z,16.43
2023-03-22T09:53:01.238Z,16.06
2023-03-22T09:55:38.620Z,15.62
2023-03-22T09:58:26.319Z,14.42
2023-03-22T10:00:59.531Z,14.32
2023-03-22T10:03:51.535Z,13.95
2023-03-22T10:06:22.820Z,14.08
2023-03-22T10:09:02.877Z,14.80
2023-03-22T10:11:46.099Z,14.29
2023-03-22T10:14:31.258Z,14.66
2023-03-22T10:17:05.526Z,14.38
2023-03-22T10:19:53.156Z,13.43
2023-03-22T10:22:25.595Z,12.87
2023-03-22T10:24:55.559Z,12.41
2023-03-22T10:27:30.874Z,12.42
2023-03-22T10:30:04.010Z,12.30
2023-03-22T10:32:54.669Z,12.36
2023-03-22T10:35:29.169Z,12.82
2023-03-22T10:38:14.545Z,13.33
2023-03-22T10:40:43.735Z,13.59
2023-03-22T10:43:33.876Z,13.82
2023-03-22T10:46:06.953Z,13.86
2023-03-22T10:48:37.689Z,13.56
2023-03-22T10:51:27.086Z,13.75
2023-03-22T10:53:58.158Z,13.65
2023-03-22T10:56:26.979Z,13.68
2023-03-22T10:59:01.052Z,13.26
2023-03-22T11:01:36.664Z,13.36
2023-03-22T11:04:10.035Z,13.04
2023-03-22T11:06:47.346Z,13.06
2023-03-22T11:09:25.710Z,13.23
2023-03-22T11:11:56.716Z,13.41
2023-03-22T11:14:31.836Z,13.33
2023-03-22T11:17:20.094Z,13.17
2023-03-22T11:19:54.072Z,13.57
2023-03-22T11:22:30.782Z,13.16
2023-03-22T11:25:00.102Z,13.20
2023-03-22T11:27:37.565Z,13.14
2023-03-22T11:30:24.906Z,13.10
2023-03-22T11:33:17.575Z,13.21
2023-03-22T11:35:48.645Z,13.01
2023-03-22T11:38:37.438Z,13.13
2023-03-22T11:41:12.434Z,13.44
2023-03-22T11:43:43.951Z,13.46
2023-03-22T11:46:14.237Z,14.12
2023-03-22T11:48:51.133Z,14.41
2023-03-22T11:51:29.680Z,14.52
2023-03-22T11:54:13.088Z,14.29
2023-03-22T11:56:49.146Z,14.11
2023-03-22T11:59:24.062Z,13.72
2023-03-22T12:02:08.617Z,13.58
2023-03-22T12:04:40.139Z,13.44
2023-03-22T12:07:15.355Z,13.10
2023-03-22T12:09:54.854Z,13.19
2023-03-22T12:12:32.256Z,13.25
2023-03-22T12:15:05.770Z,13.17
2023-03-22T12:17:44.268Z,12.89
2023-03-22T12:20:25.117Z,12.67
2023-03-22T12:22:57.031Z,12.69
2023-03-22T12:25:32.375Z,12.80
2023-03-22T12:28:17.066Z,12.84
2023-03-22T12:30:48.952Z,12.79
2023-03-22T12:33:28.030Z,12.91
2023-03-22T12:36:09.253Z,12.99
2023-03-22T12:38:42.144Z,12.95
2023-03-22T12:41:13.498Z,13.11
2023-03-22T12:44:00.348Z,13.12
2023-03-22T12:46:33.089Z,13.12
2023-03-22T12:49:07.918Z,13.14
2023-03-22T12:51:53.573Z,13.17
2023-03-22T12:54:25.799Z,13.44
2023-03-22T12:56:56.047Z,13.43
2023-03-22T12:59:33.456Z,13.62
2023-03-22T13:02:15.089Z,13.57
2023-03-22T13:04:57.944Z,13.83
2023-03-22T13:07:54.147Z,13.73
2023-03-22T13:11:02.229Z,13.79
2023-03-22T13:13:54.887Z,13.71
2023-03-22T13:16:52.640Z,13.55
2023-03-22T13:19:45.000Z,13.60
2023-03-22T13:22:28.053Z,13.85
2023-03-22T13:25:18.243Z,13.76
2023-03-22T13:28:04.190Z,14.00
2023-03-22T13:30:36.378Z,13.85
2023-03-22T13:33:25.466Z,13.79
2023-03-22T13:35:58.741Z,13.49
2023-03-22T13:38:30.488Z,13.24
2023-03-22T13:41:07.068Z,13.04
2023-03-22T13:43:44.466Z,12.98
2023-03-22T13:46:27.716Z,12.80
2023-03-22T13:49:28.701Z,12.88
2023-03-22T13:52:00.321Z,12.91
2023-03-22T13:54:38.906Z,12.74
2023-03-22T13:57:22.020Z,12.80
2023-03-22T14:00:11.156Z,12.89
2023-03-22T14:02:53.060Z,12.81
2023-03-22T14:05:24.181Z,12.76
2023-03-22T14:07:56.159Z,12.90
2023-03-22T14:10:34.007Z,12.90
2023-03-22T14:13:17.344Z,12.94
2023-03-22T14:15:50.808Z,12.91
2023-03-22T14:18:27.186Z,12.91
2023-03-22T14:21:06.476Z,12.89
